Time;durP1;ratioP1;P1;durP2;ratioP2;P2;SDS_P1;SDS_P2;PMS_P1;PMS_P2;Temp;Humidity;BMP_temperature;BMP_pressure;BME280_temperature;BME280_humidity;BME280_pressure;Samples;Min_cycle;Max_cycle;Signal;HPM_P1;HPM_P2
2023/08/13 00:01:02;;;;;;;13.02;8.60;;;;;;;30.56;59.67;100722.72;5085515;27;70219;-37
2023/08/13 00:03:32;;;;;;;8.77;7.88;;;;;;;30.55;59.40;100726.50;5094554;27;65474;-37
2023/08/13 00:06:03;;;;;;;11.43;7.65;;;;;;;30.60;60.42;100740.19;5090473;27;70477;-38
2023/08/13 00:08:34;;;;;;;8.25;7.47;;;;;;;30.59;60.46;100738.53;5095535;27;66571;-38
2023/08/13 00:11:09;;;;;;;8.00;6.97;;;;;;;30.10;61.78;100658.97;5090641;27;69755;-37
2023/08/13 00:13:40;;;;;;;7.82;7.32;;;;;;;30.64;61.23;100754.94;5066335;27;65262;-38
2023/08/13 00:16:11;;;;;;;7.60;7.00;;;;;;;30.69;61.40;100749.69;5093386;27;69141;-38
2023/08/13 00:18:41;;;;;;;11.02;6.03;;;;;;;30.71;61.34;100752.19;5097079;27;67517;-37
2023/08/13 00:21:11;;;;;;;9.13;6.40;;;;;;;30.77;61.28;100750.47;5097481;27;70367;-38
2023/08/13 00:23:41;;;;;;;10.70;6.00;;;;;;;30.75;61.96;100763.38;5078621;27;66184;-37
2023/08/13 00:26:12;;;;;;;6.82;6.32;;;;;;;30.77;62.12;100755.88;5088109;27;70334;-39
2023/08/13 00:28:42;;;;;;;9.30;7.03;;;;;;;30.81;60.95;100759.81;5093032;27;66647;-38
2023/08/13 00:31:12;;;;;;;7.00;6.40;;;;;;;30.80;62.62;100760.88;5095582;27;69589;-37
2023/08/13 00:33:43;;;;;;;6.32;5.70;;;;;;;30.78;61.94;100752.09;5086402;27;65160;-37
2023/08/13 00:36:13;;;;;;;6.00;5.55;;;;;;;30.43;62.90;100698.50;5096503;27;69768;-37
2023/08/13 00:38:43;;;;;;;6.00;5.30;;;;;;;30.85;62.88;100764.56;5081366;27;65648;-38
2023/08/13 00:41:13;;;;;;;11.18;6.03;;;;;;;30.93;66.64;100768.88;5087453;27;69421;-38
2023/08/13 00:43:45;;;;;;;;;;;;;;;30.59;72.83;100760.19;5078315;27;66172;-37
2023/08/13 00:46:15;;;;;;;7.90;6.53;;;;;;;30.98;69.80;100779.88;5092637;27;69771;-36
2023/08/13 00:48:54;;;;;;;10.13;6.68;;;;;;;30.82;74.10;100753.38;5094245;27;66711;-36
2023/08/13 00:51:26;;;;;;;12.30;6.25;;;;;;;31.04;73.08;100795.22;5097094;27;69946;-36
2023/08/13 00:53:57;;;;;;;12.75;8.25;;;;;;;31.03;74.59;100795.44;5102526;27;66264;-37
2023/08/13 00:56:28;;;;;;;12.15;7.03;;;;;;;31.03;76.37;100803.56;5083276;27;69205;-35
2023/08/13 00:58:58;;;;;;;11.23;7.20;;;;;;;31.06;76.52;100803.13;5081876;27;66474;-36
2023/08/13 01:01:28;;;;;;;19.30;9.15;;;;;;;31.06;72.45;100798.53;5098415;27;69398;-36
2023/08/13 01:03:58;;;;;;;10.38;6.80;;;;;;;31.18;72.10;100809.47;5102333;27;66429;-38
2023/08/13 01:06:42;;;;;;;12.93;7.28;;;;;;;31.22;70.09;100809.84;5099831;27;69780;-38
2023/08/13 01:09:22;;;;;;;15.80;6.22;;;;;;;31.36;68.76;100823.06;5084498;27;66732;-38
2023/08/13 01:12:11;;;;;;;10.00;6.47;;;;;;;31.30;68.56;100815.78;5102724;27;69353;-37
2023/08/13 01:15:19;;;;;;;11.15;5.25;;;;;;;30.80;67.82;100722.97;5103213;27;66260;-36
2023/08/13 01:17:52;;;;;;;11.60;5.95;;;;;;;31.07;67.45;100762.28;5084308;27;70219;-37
2023/08/13 01:20:34;;;;;;;11.32;5.00;;;;;;;31.37;67.43;100815.75;5100525;27;65691;-36
2023/08/13 01:23:05;;;;;;;12.77;4.55;;;;;;;31.58;67.19;100839.69;5080625;27;69549;-35
2023/08/13 01:25:36;;;;;;;10.63;4.90;;;;;;;31.56;67.33;100830.13;5092265;27;66305;-37
2023/08/13 01:28:36;;;;;;;11.45;4.85;;;;;;;31.50;67.45;100837.28;5100938;27;70102;-36
2023/08/13 01:31:14;;;;;;;9.27;3.78;;;;;;;31.63;67.56;100844.47;5094960;27;66543;-36
2023/08/13 01:33:47;;;;;;;11.63;4.68;;;;;;;31.56;67.89;100825.53;5098655;27;69952;-37
2023/08/13 01:40:27;;;;;;;7.28;4.32;;;;;;;31.73;67.89;100846.63;5100878;27;70448;-38
2023/08/13 01:42:57;;;;;;;5.55;4.03;;;;;;;31.67;72.45;100850.25;5098388;27;66224;-38
2023/08/13 01:45:28;;;;;;;4.15;3.75;;;;;;;31.62;74.96;100856.34;5081096;27;70147;-39
2023/08/13 01:47:59;;;;;;;4.45;3.80;;;;;;;31.61;75.44;100855.50;5082323;27;66554;-38
2023/08/13 01:50:30;;;;;;;8.45;4.25;;;;;;;31.57;75.89;100843.47;5083375;27;70395;-39
2023/08/13 01:53:00;;;;;;;11.30;4.30;;;;;;;31.63;75.67;100852.59;5087972;27;65883;-38
2023/08/13 01:55:31;;;;;;;13.70;4.60;;;;;;;31.51;76.07;100828.13;5095424;27;70386;-37
2023/08/13 01:58:02;;;;;;;11.70;4.10;;;;;;;31.57;75.88;100831.81;5082217;27;66565;-37
2023/08/13 02:00:34;;;;;;;9.95;4.45;;;;;;;31.66;76.29;100862.16;5075103;27;69109;-37
2023/08/13 02:03:05;;;;;;;13.52;4.07;;;;;;;31.67;75.90;100852.97;5078975;27;66355;-38
2023/08/13 02:05:36;;;;;;;5.78;4.32;;;;;;;31.71;73.84;100846.03;5100759;27;70399;-37
2023/08/13 02:08:07;;;;;;;12.77;4.32;;;;;;;31.75;71.95;100828.25;5084408;27;66636;-39
2023/08/13 02:10:38;;;;;;;9.40;3.50;;;;;;;31.89;71.23;100839.75;5080681;27;70002;-38
2023/08/13 02:13:09;;;;;;;7.78;4.28;;;;;;;31.90;70.55;100831.41;5090847;27;65555;-37
2023/08/13 02:15:40;;;;;;;6.30;3.47;;;;;;;31.95;70.06;100834.28;5082429;27;71700;-40
2023/08/13 02:18:10;;;;;;;4.85;3.60;;;;;;;32.00;69.73;100842.56;5093956;27;66628;-38
2023/08/13 02:20:42;;;;;;;6.50;4.13;;;;;;;32.01;69.33;100833.38;5091316;27;70052;-38
2023/08/13 02:23:12;;;;;;;7.35;4.03;;;;;;;31.72;69.50;100775.28;5094424;27;66173;-38
2023/08/13 02:25:43;;;;;;;4.45;3.47;;;;;;;32.12;69.13;100834.47;5095242;27;69287;-37
2023/08/13 02:28:15;;;;;;;6.80;3.42;;;;;;;32.16;69.18;100834.84;5075497;27;66220;-38
2023/08/13 02:30:49;;;;;;;7.93;3.90;;;;;;;32.17;69.17;100831.06;5093590;27;70134;-41
2023/08/13 02:33:20;;;;;;;7.38;3.65;;;;;;;32.18;68.73;100827.28;5088213;27;65329;-38
2023/08/13 02:35:51;;;;;;;5.60;3.38;;;;;;;32.18;68.83;100816.44;5088273;27;71444;-38
2023/08/13 02:38:21;;;;;;;3.78;3.42;;;;;;;32.25;68.60;100833.47;5096355;27;66845;-38
2023/08/13 02:40:52;;;;;;;4.72;2.95;;;;;;;32.30;68.67;100830.88;5081517;27;69981;-38
2023/08/13 02:43:26;;;;;;;4.18;3.03;;;;;;;32.32;68.64;100827.91;5084234;27;66527;-38
2023/08/13 02:45:57;;;;;;;3.60;3.30;;;;;;;32.31;68.45;100813.53;5095472;27;69758;-37
2023/08/13 02:48:27;;;;;;;8.23;2.83;;;;;;;32.23;68.16;100794.84;5097302;27;66104;-37
2023/08/13 02:50:58;;;;;;;14.97;3.17;;;;;;;31.14;68.19;100611.28;5096190;27;69855;-37
2023/08/13 02:53:29;;;;;;;3.28;2.78;;;;;;;32.41;68.17;100802.13;5086876;27;66029;-39
2023/08/13 02:56:00;;;;;;;7.85;3.20;;;;;;;32.42;68.20;100807.28;5094169;27;69767;-38
2023/08/13 02:58:30;;;;;;;3.45;2.95;;;;;;;32.44;68.00;100799.75;5081001;27;66440;-37
2023/08/13 03:01:01;;;;;;;6.95;3.10;;;;;;;32.46;67.98;100802.28;5076514;27;69513;-38
2023/08/13 03:03:32;;;;;;;4.97;2.87;;;;;;;32.47;67.98;100799.31;5081188;27;67270;-38
2023/08/13 03:06:15;;;;;;;3.85;2.70;;;;;;;32.46;67.89;100786.81;5077859;27;70211;-37
2023/08/13 03:08:46;;;;;;;6.88;3.17;;;;;;;32.53;67.79;100785.88;5085040;27;66382;-39
2023/08/13 03:11:17;;;;;;;3.70;2.47;;;;;;;32.54;68.08;100782.09;5096173;27;70509;-37
2023/08/13 03:13:50;;;;;;;2.78;2.50;;;;;;;32.58;67.62;100783.28;5081577;27;66410;-38
2023/08/13 03:16:21;;;;;;;5.50;2.45;;;;;;;32.59;67.46;100777.59;5081441;27;70731;-38
2023/08/13 03:18:54;;;;;;;3.72;2.22;;;;;;;32.61;67.54;100772.78;5083918;27;66368;-38
2023/08/13 03:21:25;;;;;;;3.43;2.50;;;;;;;32.64;67.66;100783.16;5081873;27;70432;-38
2023/08/13 03:23:55;;;;;;;2.97;2.53;;;;;;;32.67;67.70;100774.53;5068899;27;65984;-39
2023/08/13 03:26:26;;;;;;;3.35;2.53;;;;;;;32.69;67.51;100777.84;5078304;27;70765;-38
2023/08/13 03:28:56;;;;;;;3.40;2.08;;;;;;;32.73;67.16;100770.06;5094701;27;66410;-38
2023/08/13 03:31:27;;;;;;;4.15;2.55;;;;;;;32.75;67.22;100781.53;5084287;27;70301;-37
2023/08/13 03:34:04;;;;;;;3.88;2.38;;;;;;;32.74;67.26;100765.47;5080669;27;66473;-38
2023/08/13 03:36:35;;;;;;;3.07;2.43;;;;;;;32.78;67.09;100778.31;5081337;27;70387;-38
2023/08/13 03:39:05;;;;;;;2.20;1.77;;;;;;;32.81;67.09;100767.00;5080191;27;65246;-38
2023/08/13 03:41:37;;;;;;;4.22;2.35;;;;;;;32.03;66.91;100646.75;5091688;27;70245;-38
2023/08/13 03:44:07;;;;;;;6.22;2.72;;;;;;;32.70;66.70;100732.50;5095105;27;66498;-37
2023/08/13 03:46:38;;;;;;;3.63;2.45;;;;;;;32.66;68.72;100763.94;5084512;27;70045;-38
2023/08/13 03:49:09;;;;;;;9.13;2.57;;;;;;;32.55;69.50;100762.03;5090223;27;66545;-38
2023/08/13 03:51:40;;;;;;;6.68;2.40;;;;;;;32.54;69.72;100766.66;5088302;27;69640;-40
2023/08/13 03:54:11;;;;;;;;;;;;;;;32.25;71.66;100763.72;5080950;27;66066;-37
2023/08/13 03:56:43;;;;;;;9.83;2.13;;;;;;;32.43;71.15;100751.94;5095115;27;69235;-38
2023/08/13 03:59:14;;;;;;;5.55;2.08;;;;;;;32.46;70.63;100746.09;5087653;27;65979;-39
2023/08/13 04:01:45;;;;;;;3.85;2.53;;;;;;;32.47;71.04;100733.34;5090994;27;70592;-39
2023/08/13 04:04:16;;;;;;;2.57;2.10;;;;;;;32.46;71.02;100740.66;5090174;27;68476;-38
2023/08/13 04:06:47;;;;;;;2.73;1.97;;;;;;;32.45;71.19;100736.22;5091227;27;71945;-38
2023/08/13 04:09:18;;;;;;;2.88;2.13;;;;;;;32.45;71.03;100729.97;5092578;27;66101;-38
2023/08/13 04:11:49;;;;;;;5.10;2.38;;;;;;;32.53;70.52;100731.56;5078645;27;70338;-37
2023/08/13 04:14:20;;;;;;;3.50;2.20;;;;;;;32.38;71.02;100718.44;5088728;27;66499;-37
2023/08/13 04:16:51;;;;;;;2.97;2.25;;;;;;;32.49;71.04;100729.31;5071342;27;69837;-38
2023/08/13 04:19:22;;;;;;;4.35;2.47;;;;;;;32.49;71.16;100721.19;5069468;27;65994;-37
2023/08/13 04:21:53;;;;;;;9.88;1.85;;;;;;;32.46;71.24;100715.41;5070241;27;69863;-38
2023/08/13 04:24:23;;;;;;;8.88;2.83;;;;;;;32.61;70.14;100720.34;5087149;27;65596;-37
2023/08/13 04:26:54;;;;;;;5.65;2.58;;;;;;;32.20;70.81;100656.91;5092717;27;70684;-38
2023/08/13 04:29:25;;;;;;;3.17;2.20;;;;;;;32.42;70.68;100682.41;5091931;27;65959;-36
2023/08/13 04:31:56;;;;;;;5.68;3.17;;;;;;;32.63;70.73;100710.09;5062198;28;69667;-38
2023/08/13 04:34:27;;;;;;;9.77;3.17;;;;;;;32.61;70.65;100693.19;5052393;28;65726;-39
2023/08/13 04:36:57;;;;;;;12.63;2.78;;;;;;;32.83;68.97;100693.41;5055465;28;70216;-36
2023/08/13 04:39:28;;;;;;;3.28;2.50;;;;;;;32.94;68.40;100696.13;5052048;28;66861;-38
2023/08/13 04:42:01;;;;;;;8.52;3.00;;;;;;;33.01;68.27;100690.56;5053916;28;69413;-37
2023/08/13 04:44:32;;;;;;;5.25;2.67;;;;;;;33.09;68.29;100681.22;5072910;28;66703;-38
2023/08/13 04:47:03;;;;;;;;;;;;;;;32.83;69.43;100688.81;5071973;28;70750;-38
2023/08/13 04:49:34;;;;;;;8.05;2.60;;;;;;;33.17;67.87;100675.41;5061103;28;66102;-37
2023/08/13 04:52:05;;;;;;;7.87;2.80;;;;;;;33.21;67.59;100663.00;5054722;28;69071;-37
2023/08/13 04:54:37;;;;;;;4.15;2.95;;;;;;;33.25;67.62;100664.16;5054816;28;65251;-40
2023/08/13 04:57:08;;;;;;;6.05;3.22;;;;;;;32.91;67.68;100595.25;5055434;28;69035;-41
2023/08/13 04:59:39;;;;;;;7.97;2.92;;;;;;;33.25;67.28;100636.16;5055176;28;66576;-37
2023/08/13 05:02:11;;;;;;;5.35;3.38;;;;;;;33.36;66.94;100644.25;5049184;28;70756;-39
2023/08/13 05:04:42;;;;;;;5.90;2.92;;;;;;;33.29;66.53;100624.56;5053706;28;66208;-37
2023/08/13 05:07:13;;;;;;;5.50;2.55;;;;;;;33.37;66.47;100623.31;5045001;28;69577;-37
2023/08/13 05:09:44;;;;;;;4.75;2.85;;;;;;;33.42;66.23;100625.31;5045519;28;65526;-36
2023/08/13 05:12:15;;;;;;;4.28;3.15;;;;;;;33.31;66.46;100603.38;5045617;28;69777;-37
2023/08/13 05:14:47;;;;;;;5.80;2.78;;;;;;;33.37;65.75;100596.97;5057640;28;66392;-38
2023/08/13 05:17:20;;;;;;;3.67;2.40;;;;;;;33.49;66.01;100609.66;5038456;28;70889;-37
2023/08/13 05:19:52;;;;;;;3.10;2.65;;;;;;;33.50;65.61;100605.91;5058648;28;65129;-39
2023/08/13 05:22:23;;;;;;;5.50;3.13;;;;;;;33.48;65.65;100602.59;5043068;28;70952;-37
2023/08/13 05:24:54;;;;;;;12.63;3.30;;;;;;;33.36;65.45;100584.44;5054382;28;66471;-38
2023/08/13 05:27:25;;;;;;;7.10;3.63;;;;;;;33.28;64.53;100593.00;5068418;28;68145;-40
2023/08/13 05:29:56;;;;;;;17.73;3.70;;;;;;;33.20;64.21;100579.78;5074652;27;65553;-40
2023/08/13 05:32:28;;;;;;;16.07;4.00;;;;;;;33.15;65.37;100585.97;5078625;27;70333;-38
2023/08/13 05:34:59;;;;;;;9.63;3.33;;;;;;;33.01;63.05;100575.63;5079847;27;66397;-37
2023/08/13 05:37:31;;;;;;;7.22;3.20;;;;;;;32.80;62.06;100550.75;5089674;27;69876;-38
2023/08/13 05:40:02;;;;;;;10.33;3.13;;;;;;;32.88;61.65;100574.81;5078811;27;67383;-38
2023/08/13 05:42:33;;;;;;;4.05;2.58;;;;;;;32.75;60.18;100561.50;5091765;27;70027;-38
2023/08/13 05:45:04;;;;;;;8.98;3.28;;;;;;;32.75;59.79;100555.25;5079468;27;66245;-39
2023/08/13 05:47:35;;;;;;;4.47;2.90;;;;;;;32.63;59.69;100549.88;5077822;27;69189;-39
2023/08/13 05:50:06;;;;;;;9.68;2.40;;;;;;;32.63;59.19;100541.72;5074080;27;65913;-38
2023/08/13 05:52:37;;;;;;;10.55;2.20;;;;;;;32.59;57.73;100554.94;5078502;27;69826;-38
2023/08/13 05:55:08;;;;;;;9.00;2.63;;;;;;;32.58;57.20;100560.63;5100557;27;66614;-39
2023/08/13 05:57:39;;;;;;;11.40;2.45;;;;;;;32.57;58.29;100548.09;5100436;27;69684;-38
2023/08/13 06:00:13;;;;;;;6.13;2.40;;;;;;;32.55;56.24;100539.38;5096860;27;65338;-39
2023/08/13 06:02:43;;;;;;;7.22;2.13;;;;;;;32.38;55.44;100522.97;5095712;27;70346;-38
2023/08/13 06:05:14;;;;;;;6.78;2.22;;;;;;;32.42;55.41;100527.66;5088355;27;66490;-40
2023/08/13 06:07:45;;;;;;;4.55;2.30;;;;;;;32.40;54.17;100537.13;5096440;27;69614;-38
2023/08/13 06:10:16;;;;;;;4.20;2.38;;;;;;;32.35;53.70;100539.75;5100483;27;66178;-39
2023/08/13 06:12:47;;;;;;;3.42;2.13;;;;;;;32.33;52.78;100529.13;5092211;27;69286;-38
2023/08/13 06:15:18;;;;;;;3.20;2.20;;;;;;;32.37;54.26;100522.13;5098811;27;66127;-39
2023/08/13 06:17:49;;;;;;;3.45;2.33;;;;;;;32.31;53.54;100523.09;5090490;27;69149;-40
2023/08/13 06:20:20;;;;;;;4.22;1.50;;;;;;;32.30;52.96;100526.88;5096462;27;65571;-39
2023/08/13 06:22:51;;;;;;;2.00;1.77;;;;;;;32.24;51.24;100517.81;5094497;27;69871;-38
2023/08/13 06:25:22;;;;;;;4.07;1.92;;;;;;;32.30;51.36;100505.16;5097519;27;66092;-39
2023/08/13 06:27:53;;;;;;;2.40;2.00;;;;;;;32.28;51.64;100497.25;5090196;27;71975;-38
2023/08/13 06:30:24;;;;;;;3.42;2.03;;;;;;;32.32;52.26;100496.75;5096999;27;66809;-39
2023/08/13 06:32:54;;;;;;;3.80;1.87;;;;;;;32.29;50.67;100498.09;5095101;27;70154;-38
2023/08/13 06:35:25;;;;;;;2.03;1.65;;;;;;;32.26;51.12;100479.53;5097219;27;66686;-37
2023/08/13 06:37:56;;;;;;;2.28;2.05;;;;;;;32.26;49.92;100476.84;5084719;27;69148;-37
2023/08/13 06:40:33;;;;;;;2.28;2.00;;;;;;;32.21;50.30;100468.59;5080247;27;66033;-38
2023/08/13 06:43:05;;;;;;;2.58;2.03;;;;;;;32.28;50.99;100480.13;5083394;27;70040;-39
2023/08/13 06:45:35;;;;;;;2.40;2.20;;;;;;;32.31;49.68;100500.56;5093723;27;65682;-40
2023/08/13 06:48:07;;;;;;;2.40;2.00;;;;;;;32.32;50.11;100491.34;5096231;27;70620;-41
2023/08/13 06:50:38;;;;;;;2.28;1.70;;;;;;;32.30;50.03;100496.19;5091020;27;65412;-39
2023/08/13 06:53:09;;;;;;;5.32;2.33;;;;;;;32.36;49.65;100489.81;5086451;27;69995;-39
2023/08/13 06:55:40;;;;;;;3.38;1.90;;;;;;;32.36;50.12;100477.06;5092396;27;66434;-40
2023/08/13 06:58:10;;;;;;;3.80;2.03;;;;;;;32.39;49.92;100490.16;5099796;27;70512;-39
2023/08/13 07:00:41;;;;;;;7.13;2.17;;;;;;;32.35;48.99;100491.69;5072615;27;65504;-40
2023/08/13 07:03:12;;;;;;;2.90;1.98;;;;;;;32.31;49.07;100479.66;5097602;27;69662;-40
2023/08/13 07:05:43;;;;;;;6.38;2.10;;;;;;;32.29;49.23;100462.81;5092271;27;66233;-40
2023/08/13 07:08:14;;;;;;;5.00;1.97;;;;;;;32.36;49.99;100487.91;5090103;27;69165;-39
2023/08/13 07:10:45;;;;;;;10.68;2.05;;;;;;;32.32;47.71;100477.75;5094334;27;66963;-39
2023/08/13 07:13:16;;;;;;;11.30;2.80;;;;;;;32.30;47.76;100469.88;5095503;27;70648;-39
2023/08/13 07:15:46;;;;;;;3.13;2.00;;;;;;;32.29;49.29;100462.81;5089165;27;66301;-41
2023/08/13 07:18:17;;;;;;;2.53;2.33;;;;;;;32.29;48.55;100451.97;5098991;27;70875;-39
2023/08/13 07:20:48;;;;;;;2.92;2.42;;;;;;;32.10;48.94;100412.47;5094086;27;65610;-40
2023/08/13 07:23:20;;;;;;;5.82;2.47;;;;;;;32.22;47.40;100432.25;5090350;27;69775;-40
2023/08/13 07:25:50;;;;;;;2.90;2.30;;;;;;;32.30;49.11;100440.03;5075589;27;66525;-38
2023/08/13 07:28:21;;;;;;;11.18;2.58;;;;;;;32.31;48.07;100441.66;5087016;27;70148;-42
2023/08/13 07:30:51;;;;;;;3.90;2.35;;;;;;;32.22;47.39;100437.69;5078951;27;66329;-40
2023/08/13 07:33:22;;;;;;;4.53;2.75;;;;;;;32.28;47.32;100436.72;5097800;27;70316;-39
2023/08/13 07:35:54;;;;;;;7.50;2.53;;;;;;;32.21;48.52;100442.28;5095536;27;66773;-39
2023/08/13 07:38:24;;;;;;;8.52;2.60;;;;;;;32.13;47.94;100433.72;5092904;27;70149;-41
2023/08/13 07:40:56;;;;;;;7.40;2.75;;;;;;;31.29;48.25;100295.72;5099459;27;65993;-38
2023/08/13 07:43:27;;;;;;;12.52;2.92;;;;;;;32.18;49.07;100447.34;5089704;27;69664;-39
2023/08/13 07:45:58;;;;;;;15.10;2.92;;;;;;;32.26;49.51;100455.13;5094226;27;65425;-38
2023/08/13 07:48:31;;;;;;;7.28;2.83;;;;;;;32.28;50.86;100453.81;5080302;27;69814;-39
2023/08/13 07:51:02;;;;;;;4.75;3.05;;;;;;;32.29;50.45;100454.66;5100419;27;66201;-40
2023/08/13 07:53:33;;;;;;;6.97;2.88;;;;;;;32.38;50.87;100463.25;5091840;27;70683;-39
2023/08/13 07:56:03;;;;;;;12.80;2.83;;;;;;;32.36;50.88;100460.78;5086499;27;64929;-39
2023/08/13 07:58:34;;;;;;;34.17;4.07;;;;;;;32.19;53.80;100411.84;5095390;27;70170;-38
2023/08/13 08:01:04;;;;;;;32.88;3.90;;;;;;;32.47;53.18;100451.78;5091959;27;65701;-39
2023/08/13 08:03:35;;;;;;;15.65;3.70;;;;;;;32.45;52.82;100453.88;5097047;27;69392;-38
2023/08/13 08:06:05;;;;;;;22.20;3.70;;;;;;;32.47;52.13;100451.78;5095456;27;66741;-39
2023/08/13 08:08:35;;;;;;;11.65;3.30;;;;;;;32.42;51.71;100435.38;5094958;27;69271;-42
2023/08/13 08:11:05;;;;;;;15.45;3.55;;;;;;;32.39;50.98;100443.19;5078082;27;65739;-38
2023/08/13 08:13:36;;;;;;;12.43;3.38;;;;;;;32.43;50.77;100456.03;5079205;27;69953;-37
2023/08/13 08:16:06;;;;;;;7.32;2.80;;;;;;;32.36;50.42;100444.47;5077061;27;66410;-39
2023/08/13 08:18:36;;;;;;;5.32;2.70;;;;;;;32.44;50.58;100478.56;5073370;27;69793;-39
2023/08/13 08:21:12;;;;;;;6.85;3.22;;;;;;;32.41;49.53;100466.31;5073394;27;65512;-38
2023/08/13 08:23:43;;;;;;;6.10;2.95;;;;;;;32.44;49.88;100467.72;5077242;27;69356;-38
2023/08/13 08:26:13;;;;;;;7.40;3.00;;;;;;;32.38;49.26;100453.22;5092819;27;65435;-39
2023/08/13 08:28:43;;;;;;;6.72;2.80;;;;;;;32.40;49.68;100448.38;5088390;27;69336;-41
2023/08/13 08:31:13;;;;;;;10.10;3.25;;;;;;;32.38;49.32;100442.34;5094412;27;66300;-39
2023/08/13 08:33:43;;;;;;;2.88;2.50;;;;;;;32.32;49.22;100439.75;5075032;27;69220;-38
2023/08/13 08:36:13;;;;;;;10.80;2.80;;;;;;;32.29;49.79;100427.53;5064303;27;66311;-38
2023/08/13 08:38:43;;;;;;;2.55;2.35;;;;;;;32.31;49.23;100433.50;5089666;27;70448;-38
2023/08/13 08:41:15;;;;;;;3.17;2.63;;;;;;;31.74;48.35;100343.88;5091642;27;66124;-40
2023/08/13 08:43:48;;;;;;;4.75;3.17;;;;;;;32.17;49.66;100394.16;5089911;27;70523;-39
2023/08/13 08:46:19;;;;;;;6.18;2.95;;;;;;;32.23;49.45;100412.19;5091591;27;66453;-41
2023/08/13 08:48:50;;;;;;;3.47;2.30;;;;;;;32.18;49.49;100418.34;5092984;27;69181;-40
2023/08/13 08:51:24;;;;;;;5.35;2.95;;;;;;;32.24;48.88;100425.53;5089760;27;66525;-40
2023/08/13 08:53:57;;;;;;;7.95;2.70;;;;;;;32.30;49.78;100434.59;5091318;27;69105;-39
2023/08/13 08:56:28;;;;;;;6.85;2.90;;;;;;;32.23;49.81;100428.47;5086758;27;66668;-39
2023/08/13 08:58:58;;;;;;;7.97;3.05;;;;;;;31.93;49.19;100396.94;5089462;27;70613;-40
2023/08/13 09:01:28;;;;;;;10.85;3.10;;;;;;;32.19;49.71;100439.00;5091121;27;66760;-37
2023/08/13 09:03:59;;;;;;;7.22;2.88;;;;;;;32.02;49.41;100428.06;5088946;27;69932;-38
2023/08/13 09:06:56;;;;;;;3.58;2.60;;;;;;;32.09;47.92;100444.19;5072979;27;65537;-37
2023/08/13 09:09:27;;;;;;;3.65;3.28;;;;;;;32.17;49.04;100441.09;5090438;27;69441;-38
2023/08/13 09:11:58;;;;;;;3.50;3.20;;;;;;;31.56;47.58;100372.78;5089855;27;66548;-37
2023/08/13 09:14:29;;;;;;;7.07;2.80;;;;;;;31.69;48.61;100400.72;5092501;27;69925;-37
2023/08/13 09:16:59;;;;;;;4.45;3.17;;;;;;;31.96;48.35;100445.28;5072121;27;66436;-37
2023/08/13 09:19:33;;;;;;;2.90;2.63;;;;;;;31.37;47.47;100358.53;5092904;27;70755;-41
2023/08/13 09:22:06;;;;;;;8.65;2.88;;;;;;;31.84;47.54;100447.13;5089894;27;65417;-38
2023/08/13 09:24:38;;;;;;;2.95;2.70;;;;;;;31.76;47.21;100450.22;5094113;27;69716;-40
2023/08/13 09:27:09;;;;;;;5.60;2.80;;;;;;;31.71;46.94;100452.84;5092533;27;66685;-38
2023/08/13 09:29:39;;;;;;;2.92;2.72;;;;;;;31.60;46.58;100451.75;5091961;27;70593;-38
2023/08/13 09:32:10;;;;;;;2.78;2.55;;;;;;;31.60;47.01;100474.28;5071849;27;66059;-41
2023/08/13 09:34:40;;;;;;;2.33;2.22;;;;;;;31.52;46.73;100460.25;5094003;27;70032;-38
2023/08/13 09:37:11;;;;;;;5.28;2.80;;;;;;;31.47;46.25;100458.22;5092491;27;65583;-38
2023/08/13 09:39:41;;;;;;;6.75;2.50;;;;;;;31.63;47.45;100458.59;5093647;27;70573;-40
2023/08/13 09:42:11;;;;;;;3.20;2.92;;;;;;;31.52;47.22;100435.84;5091960;27;66017;-39
2023/08/13 09:44:46;;;;;;;4.00;2.58;;;;;;;31.57;46.39;100453.06;5094464;27;70542;-38
2023/08/13 09:47:17;;;;;;;;;;;;;;;31.30;45.34;100470.78;5093200;27;65308;-39
2023/08/13 09:49:48;;;;;;;2.95;2.65;;;;;;;31.55;46.75;100471.44;5095607;27;70681;-38
2023/08/13 09:52:25;;;;;;;2.85;2.65;;;;;;;31.24;46.20;100401.28;5098553;27;66257;-37
2023/08/13 09:55:08;;;;;;;7.00;3.42;;;;;;;31.39;48.58;100397.06;5095446;27;68956;-38
2023/08/13 09:57:41;;;;;;;8.60;3.72;;;;;;;31.91;52.35;100461.44;5099246;27;65703;-37
2023/08/13 10:00:13;;;;;;;11.85;3.72;;;;;;;32.15;53.26;100474.97;5099576;27;68993;-41
2023/08/13 10:02:46;;;;;;;6.32;3.55;;;;;;;32.21;53.83;100483.00;5089631;27;66468;-38
2023/08/13 10:05:17;;;;;;;9.10;4.50;;;;;;;32.16;55.30;100465.78;5092220;27;70085;-38
2023/08/13 10:07:47;;;;;;;13.93;4.30;;;;;;;32.32;56.42;100481.31;5089316;27;66054;-38
2023/08/13 10:10:18;;;;;;;8.00;3.30;;;;;;;32.48;56.93;100479.75;5098622;27;70422;-38
2023/08/13 10:12:48;;;;;;;5.78;3.33;;;;;;;32.54;57.45;100477.97;5076688;28;64851;-37
2023/08/13 10:15:20;;;;;;;7.22;3.58;;;;;;;32.51;57.67;100468.41;5096250;27;70293;-39
2023/08/13 10:17:52;;;;;;;9.13;4.10;;;;;;;32.09;57.94;100403.50;5100932;27;66161;-39
2023/08/13 10:20:25;;;;;;;4.97;3.53;;;;;;;32.26;57.99;100430.69;5097654;27;71555;-37
2023/08/13 10:22:55;;;;;;;6.95;4.22;;;;;;;32.72;58.30;100496.81;5098086;27;66161;-37
2023/08/13 10:25:30;;;;;;;18.10;4.30;;;;;;;32.30;59.35;100431.88;5080617;27;70964;-38
2023/08/13 10:28:18;;;;;;;13.63;4.45;;;;;;;32.81;58.79;100510.81;5099381;27;66172;-39
2023/08/13 10:30:48;;;;;;;7.68;4.50;;;;;;;32.77;58.76;100494.19;5096704;27;70290;-37
2023/08/13 10:33:19;;;;;;;5.18;3.67;;;;;;;32.37;59.12;100424.41;5079584;27;66288;-38
2023/08/13 10:35:58;;;;;;;10.68;3.78;;;;;;;32.37;60.80;100427.13;5097856;27;70293;-38
2023/08/13 10:38:38;;;;;;;5.97;3.95;;;;;;;32.65;65.36;100506.97;5080838;27;66664;-37
2023/08/13 10:41:37;;;;;;;4.32;3.83;;;;;;;32.44;65.99;100511.97;5091097;27;70267;-37
2023/08/13 10:44:30;;;;;;;3.80;3.38;;;;;;;32.25;66.50;100486.06;5090557;27;66553;-38
2023/08/13 10:47:01;;;;;;;5.20;4.00;;;;;;;32.41;66.36;100512.47;5092711;27;70276;-37
2023/08/13 10:49:32;;;;;;;4.72;3.83;;;;;;;32.37;66.36;100505.84;5093696;27;66578;-39
2023/08/13 10:52:02;;;;;;;3.85;3.55;;;;;;;32.37;66.57;100502.31;5094751;27;69145;-41
2023/08/13 10:54:33;;;;;;;3.58;3.28;;;;;;;32.26;66.46;100498.53;5094646;27;66101;-37
2023/08/13 10:57:03;;;;;;;4.10;3.72;;;;;;;32.18;66.50;100496.19;5091438;27;69412;-39
2023/08/13 11:02:38;;;;;;;6.03;3.70;;;;;;;32.30;66.65;100529.59;5095318;27;69783;-38
2023/08/13 11:05:10;;;;;;;4.03;3.63;;;;;;;32.24;66.30;100523.22;5100540;27;66607;-39
2023/08/13 11:07:43;;;;;;;4.30;3.30;;;;;;;32.22;66.51;100527.25;5090067;27;70188;-37
2023/08/13 11:10:18;;;;;;;5.35;3.40;;;;;;;32.23;66.71;100520.75;5089664;27;67252;-38
2023/08/13 11:13:07;;;;;;;10.75;4.22;;;;;;;32.24;67.11;100531.38;5091739;27;70341;-38
2023/08/13 11:15:51;;;;;;;6.88;4.03;;;;;;;32.27;67.44;100520.03;5091466;27;66289;-37
2023/08/13 11:18:22;;;;;;;9.18;3.78;;;;;;;32.21;67.31;100512.84;5092276;27;68141;-38
2023/08/13 11:20:52;;;;;;;3.73;3.30;;;;;;;32.17;67.18;100518.97;5088730;27;68908;-37
2023/08/13 11:23:23;;;;;;;5.82;4.35;;;;;;;32.27;67.13;100532.78;5090164;27;70358;-38
2023/08/13 11:25:53;;;;;;;9.68;4.63;;;;;;;32.24;66.85;100523.22;5094040;27;65715;-37
2023/08/13 11:28:28;;;;;;;4.65;4.22;;;;;;;31.75;66.82;100440.44;5092435;27;70403;-38
2023/08/13 11:30:59;;;;;;;6.00;4.95;;;;;;;32.13;67.17;100509.69;5090231;27;66711;-37
2023/08/13 11:33:29;;;;;;;14.27;5.20;;;;;;;32.30;67.73;100531.47;5094778;27;70197;-40
2023/08/13 11:36:00;;;;;;;7.22;4.40;;;;;;;32.30;68.45;100535.03;5078532;27;65973;-40
2023/08/13 11:38:30;;;;;;;5.72;4.75;;;;;;;32.32;69.21;100540.19;5096097;27;69481;-39
2023/08/13 11:41:13;;;;;;;5.40;4.40;;;;;;;31.95;66.35;100468.03;5060974;27;64715;-38
2023/08/13 11:43:43;;;;;;;8.50;4.68;;;;;;;32.67;64.92;100575.47;5094621;27;70009;-39
2023/08/13 11:46:14;;;;;;;7.53;4.60;;;;;;;32.71;64.66;100573.94;5092096;27;66330;-40
2023/08/13 11:48:44;;;;;;;6.93;4.75;;;;;;;32.74;64.39;100592.47;5083657;27;69728;-40
2023/08/13 11:51:24;;;;;;;9.48;4.32;;;;;;;32.71;64.05;100582.09;5080962;27;67193;-39
2023/08/13 11:53:54;;;;;;;6.15;4.38;;;;;;;32.84;63.92;100603.50;5083623;27;70025;-37